createdAt,value
2019-01-29T00:02:33.436Z,3.23
2019-01-29T00:05:18.771Z,3.87
2019-01-29T00:08:04.822Z,3.23
2019-01-29T00:10:47.554Z,3.93
2019-01-29T00:13:35.196Z,3.30
2019-01-29T00:19:14.274Z,3.80
2019-01-29T00:21:59.902Z,5.60
2019-01-29T00:24:42.006Z,5.60
2019-01-29T00:27:28.962Z,4.27
2019-01-29T00:30:10.729Z,3.43
2019-01-29T00:32:59.579Z,3.47
2019-01-29T00:35:43.691Z,5.83
2019-01-29T00:38:27.311Z,4.30
2019-01-29T00:41:10.448Z,3.70
2019-01-29T00:43:56.723Z,4.23
2019-01-29T00:46:46.161Z,5.10
2019-01-29T00:52:13.291Z,4.40
2019-01-29T00:55:00.888Z,8.13
2019-01-29T00:57:43.610Z,4.07
2019-01-29T01:00:28.140Z,3.80
2019-01-29T01:03:10.414Z,3.90
2019-01-29T01:05:54.221Z,3.87
2019-01-29T01:08:36.210Z,4.00
2019-01-29T01:11:21.821Z,5.43
2019-01-29T01:14:04.184Z,3.80
2019-01-29T01:16:37.330Z,5.33
2019-01-29T01:19:29.110Z,4.03
2019-01-29T01:24:56.914Z,4.57
2019-01-29T01:27:30.097Z,4.27
2019-01-29T01:30:21.060Z,4.13
2019-01-29T01:35:51.600Z,5.13
2019-01-29T01:41:20.753Z,3.83
2019-01-29T01:44:05.200Z,4.23
2019-01-29T01:46:49.139Z,4.10
2019-01-29T01:49:34.369Z,5.83
2019-01-29T01:52:17.202Z,5.90
2019-01-29T01:55:01.652Z,4.53
2019-01-29T01:57:45.895Z,5.40
2019-01-29T02:00:30.063Z,6.20
2019-01-29T02:03:12.931Z,4.93
2019-01-29T02:05:57.150Z,4.37
2019-01-29T02:08:42.621Z,3.93
2019-01-29T02:14:14.148Z,7.60
2019-01-29T02:19:42.573Z,4.73
2019-01-29T02:22:26.200Z,4.27
2019-01-29T02:25:08.312Z,4.43
2019-01-29T02:27:54.598Z,4.37
2019-01-29T02:30:42.811Z,4.50
2019-01-29T02:33:26.603Z,4.73
2019-01-29T02:36:11.454Z,4.17
2019-01-29T02:38:55.318Z,4.87
2019-01-29T02:41:38.645Z,5.50
2019-01-29T02:44:48.194Z,6.43
2019-01-29T02:47:32.033Z,4.60
2019-01-29T02:50:16.129Z,7.03
2019-01-29T02:52:59.072Z,5.60
2019-01-29T02:55:43.857Z,5.50
2019-01-29T02:58:26.602Z,5.10
2019-01-29T03:01:14.840Z,5.10
2019-01-29T03:03:57.688Z,6.07
2019-01-29T03:06:43.138Z,8.30
2019-01-29T03:09:27.152Z,11.20
2019-01-29T03:12:11.017Z,9.20
2019-01-29T03:14:54.105Z,8.88
2019-01-29T03:17:42.307Z,9.37
2019-01-29T03:20:25.383Z,10.50
2019-01-29T03:23:14.677Z,8.40
2019-01-29T03:25:57.836Z,9.97
2019-01-29T03:28:42.236Z,6.60
2019-01-29T03:31:24.848Z,8.07
2019-01-29T03:34:11.622Z,5.77
2019-01-29T03:36:55.449Z,6.37
2019-01-29T03:39:40.272Z,5.47
2019-01-29T03:42:24.039Z,5.47
2019-01-29T03:45:09.958Z,7.03
2019-01-29T03:47:52.777Z,5.67
2019-01-29T03:50:40.552Z,8.83
2019-01-29T03:53:23.672Z,6.77
2019-01-29T03:56:07.911Z,8.40
2019-01-29T03:58:51.848Z,12.67
2019-01-29T04:01:37.385Z,9.97
2019-01-29T04:04:23.821Z,6.60
2019-01-29T04:07:12.439Z,7.70
2019-01-29T04:09:57.733Z,7.00
2019-01-29T04:15:25.676Z,6.50
2019-01-29T04:18:10.693Z,7.07
2019-01-29T04:20:53.236Z,8.23
2019-01-29T04:23:47.060Z,8.03
2019-01-29T04:26:23.034Z,8.90
2019-01-29T04:29:06.320Z,7.73
2019-01-29T04:31:52.212Z,7.13
2019-01-29T04:34:25.196Z,8.73
2019-01-29T04:37:17.944Z,7.60
2019-01-29T04:40:09.864Z,8.37
2019-01-29T04:45:58.534Z,8.67
2019-01-29T04:48:43.458Z,8.20
2019-01-29T04:51:29.484Z,8.23
2019-01-29T04:54:17.054Z,7.70
2019-01-29T04:56:59.006Z,8.07
2019-01-29T04:59:44.955Z,7.53
2019-01-29T05:02:30.855Z,7.90
2019-01-29T05:07:58.316Z,9.77
2019-01-29T05:10:47.913Z,8.80
2019-01-29T05:13:33.286Z,7.77
2019-01-29T05:19:10.249Z,6.73
2019-01-29T05:24:39.814Z,7.63
2019-01-29T05:27:26.679Z,7.60
2019-01-29T05:30:10.298Z,11.20
2019-01-29T05:32:54.976Z,26.67
2019-01-29T05:35:37.851Z,24.37
2019-01-29T05:41:20.781Z,23.47
2019-01-29T05:43:52.680Z,22.00
2019-01-29T05:46:45.121Z,24.93
2019-01-29T05:52:17.511Z,10.00
2019-01-29T05:55:07.627Z,8.87
2019-01-29T05:57:42.783Z,10.30
2019-01-29T06:03:07.631Z,8.57
2019-01-29T06:05:58.239Z,8.03
2019-01-29T06:08:54.815Z,9.50
2019-01-29T06:11:27.731Z,7.17
2019-01-29T06:14:00.262Z,6.57
2019-01-29T06:16:53.514Z,7.83
2019-01-29T06:19:29.387Z,6.37
2019-01-29T06:22:29.766Z,7.53
2019-01-29T06:25:12.914Z,9.23
2019-01-29T06:27:46.477Z,8.23
2019-01-29T06:30:37.051Z,9.37
2019-01-29T06:35:57.731Z,10.57
2019-01-29T06:38:51.681Z,8.43
2019-01-29T06:41:24.763Z,9.00
2019-01-29T06:43:58.778Z,8.80
2019-01-29T06:46:31.421Z,11.83
2019-01-29T06:49:03.282Z,10.00
2019-01-29T06:51:53.986Z,10.30
2019-01-29T06:54:44.658Z,11.93
2019-01-29T06:57:17.810Z,12.40
2019-01-29T06:59:51.676Z,9.67
2019-01-29T07:02:46.281Z,10.40
2019-01-29T07:05:37.031Z,11.47
2019-01-29T07:08:20.658Z,13.57
2019-01-29T07:10:54.152Z,8.90
2019-01-29T07:13:46.247Z,12.13
2019-01-29T07:19:19.919Z,11.77
2019-01-29T07:21:53.214Z,10.77
2019-01-29T07:24:29.888Z,22.23
2019-01-29T07:27:01.763Z,20.77
2019-01-29T07:29:36.144Z,22.30
2019-01-29T07:32:08.530Z,16.03
2019-01-29T07:38:06.408Z,17.33
2019-01-29T07:40:38.057Z,18.93
2019-01-29T07:43:11.606Z,17.53
2019-01-29T07:48:51.595Z,13.87
2019-01-29T07:51:46.911Z,11.43
2019-01-29T07:54:18.699Z,15.63
2019-01-29T07:56:52.419Z,13.07
2019-01-29T07:59:32.520Z,14.20
2019-01-29T08:01:58.015Z,12.60
2019-01-29T08:04:42.370Z,14.93
2019-01-29T08:07:25.891Z,13.53
2019-01-29T08:10:14.853Z,14.60
2019-01-29T08:13:15.432Z,14.27
2019-01-29T08:16:09.460Z,13.07
2019-01-29T08:18:47.146Z,17.77
2019-01-29T08:21:21.198Z,21.03
2019-01-29T08:23:58.333Z,19.63
2019-01-29T08:26:35.674Z,19.50
2019-01-29T08:29:08.349Z,18.90
2019-01-29T08:34:28.570Z,15.30
2019-01-29T08:37:01.910Z,17.80
2019-01-29T08:39:54.052Z,15.33
2019-01-29T08:42:26.607Z,15.00
2019-01-29T08:44:59.713Z,13.77
2019-01-29T08:47:51.013Z,22.27
2019-01-29T08:50:40.457Z,23.57
2019-01-29T08:56:07.833Z,25.90
2019-01-29T08:58:40.999Z,29.43
2019-01-29T09:01:14.462Z,24.57
2019-01-29T09:04:06.632Z,21.90
2019-01-29T09:06:40.876Z,22.90
2019-01-29T09:09:31.989Z,13.83
2019-01-29T09:12:46.879Z,16.40
2019-01-29T09:15:44.424Z,16.00
2019-01-29T09:18:35.209Z,16.33
2019-01-29T09:21:14.171Z,13.90
2019-01-29T09:23:49.096Z,14.67
2019-01-29T09:26:43.115Z,14.63
2019-01-29T09:29:30.688Z,15.07
2019-01-29T09:32:03.093Z,14.97
2019-01-29T09:34:54.024Z,14.67
2019-01-29T09:37:26.615Z,16.80
2019-01-29T09:40:17.628Z,13.77
2019-01-29T09:42:49.898Z,14.33
2019-01-29T09:45:41.264Z,13.77
2019-01-29T09:48:17.233Z,17.13
2019-01-29T09:51:08.851Z,13.07
2019-01-29T09:56:29.849Z,9.53
2019-01-29T09:59:20.876Z,5.37
2019-01-29T10:02:04.533Z,6.07
2019-01-29T10:04:37.605Z,7.80
2019-01-29T10:07:10.471Z,12.13
2019-01-29T10:10:02.135Z,4.80
2019-01-29T10:12:32.938Z,5.13
2019-01-29T10:15:23.823Z,5.40
2019-01-29T10:17:55.025Z,5.67
2019-01-29T10:20:44.450Z,5.93
2019-01-29T10:23:25.699Z,5.13
2019-01-29T10:25:59.308Z,5.60
2019-01-29T10:28:49.217Z,6.60
2019-01-29T10:31:40.742Z,4.80
2019-01-29T10:34:28.298Z,6.63
2019-01-29T10:39:44.610Z,5.43
2019-01-29T10:42:35.342Z,5.97
2019-01-29T10:45:21.501Z,5.50
2019-01-29T10:47:54.992Z,6.00
2019-01-29T10:50:28.218Z,8.30
2019-01-29T10:53:19.979Z,4.87
2019-01-29T10:55:53.694Z,4.93
2019-01-29T10:58:44.160Z,6.33
2019-01-29T11:01:35.527Z,5.70
2019-01-29T11:04:08.253Z,6.10
2019-01-29T11:06:45.981Z,7.73
2019-01-29T11:09:39.889Z,5.17
2019-01-29T11:12:13.083Z,5.73
2019-01-29T11:14:45.408Z,5.37
2019-01-29T11:17:36.424Z,4.63
2019-01-29T11:20:11.697Z,10.00
2019-01-29T11:23:03.824Z,6.63
2019-01-29T11:25:35.975Z,7.73
2019-01-29T11:28:08.117Z,5.10
2019-01-29T11:30:41.095Z,6.07
2019-01-29T11:33:15.774Z,5.07
2019-01-29T11:38:38.887Z,6.10
2019-01-29T11:41:10.711Z,6.93
2019-01-29T11:44:02.553Z,6.23
2019-01-29T11:46:35.465Z,7.77
2019-01-29T11:49:07.345Z,13.73
2019-01-29T11:51:56.804Z,8.00
2019-01-29T11:54:28.548Z,6.23
2019-01-29T11:57:19.898Z,7.27
2019-01-29T11:59:51.531Z,6.13
2019-01-29T12:02:28.498Z,5.93
2019-01-29T12:04:59.701Z,7.80
2019-01-29T12:13:27.871Z,6.63
2019-01-29T12:16:20.655Z,6.47
2019-01-29T12:18:53.160Z,7.77
2019-01-29T12:21:44.858Z,5.77
2019-01-29T12:24:17.915Z,6.93
2019-01-29T12:26:50.209Z,10.80
2019-01-29T12:29:26.889Z,4.93
2019-01-29T12:32:17.279Z,4.80
2019-01-29T12:34:49.636Z,9.17
2019-01-29T12:37:28.422Z,7.17
2019-01-29T12:40:02.201Z,4.80
2019-01-29T12:42:34.749Z,4.20
2019-01-29T12:45:07.385Z,5.27
2019-01-29T12:47:40.826Z,7.43
2019-01-29T12:50:15.940Z,6.90
2019-01-29T12:53:30.224Z,3.87
2019-01-29T12:56:02.284Z,4.97
2019-01-29T12:58:53.908Z,4.80
2019-01-29T13:01:26.135Z,3.93
2019-01-29T13:04:17.716Z,4.53
2019-01-29T13:07:10.361Z,6.57
2019-01-29T13:10:02.524Z,7.33
2019-01-29T13:12:19.707Z,4.63
2019-01-29T13:14:51.443Z,5.80
2019-01-29T13:17:25.440Z,14.53
2019-01-29T13:19:59.192Z,5.30
2019-01-29T13:22:32.285Z,5.30
2019-01-29T13:25:06.853Z,8.43
2019-01-29T13:27:38.501Z,4.37
2019-01-29T13:30:29.680Z,4.57
2019-01-29T13:33:23.318Z,4.77
2019-01-29T13:36:06.790Z,4.90
2019-01-29T13:38:58.730Z,3.60
2019-01-29T13:41:32.312Z,5.53
2019-01-29T13:44:07.458Z,3.67
2019-01-29T13:46:58.628Z,5.43
2019-01-29T13:49:33.906Z,6.23
2019-01-29T13:52:06.637Z,3.83
2019-01-29T13:54:40.003Z,5.07
2019-01-29T13:57:34.390Z,7.80
2019-01-29T14:00:07.173Z,9.97
2019-01-29T14:03:00.149Z,5.07
2019-01-29T14:05:50.522Z,4.00
2019-01-29T14:08:34.101Z,5.73
2019-01-29T14:11:17.928Z,8.57
2019-01-29T14:13:50.323Z,8.47
2019-01-29T14:16:22.406Z,5.80
2019-01-29T14:18:54.300Z,4.53
2019-01-29T14:21:28.002Z,4.67
2019-01-29T14:24:19.119Z,4.40
2019-01-29T14:26:56.435Z,7.00
2019-01-29T14:29:29.275Z,4.07
2019-01-29T14:32:00.874Z,5.47
2019-01-29T14:34:56.611Z,5.40
2019-01-29T14:37:29.494Z,5.03
2019-01-29T14:40:22.247Z,4.43
2019-01-29T14:45:49.099Z,4.93
2019-01-29T14:48:21.697Z,10.13
2019-01-29T14:50:57.548Z,4.70
2019-01-29T14:53:30.737Z,4.00
2019-01-29T14:56:03.795Z,4.17
2019-01-29T14:59:00.939Z,8.17
2019-01-29T15:01:34.681Z,4.67
2019-01-29T15:04:07.576Z,6.47
2019-01-29T15:06:42.556Z,5.43
2019-01-29T15:09:17.316Z,4.27
2019-01-29T15:12:07.858Z,5.10
2019-01-29T15:14:39.523Z,5.20
2019-01-29T15:17:32.916Z,4.03
2019-01-29T15:20:06.488Z,9.20
2019-01-29T15:22:38.018Z,5.67
2019-01-29T15:25:12.689Z,5.87
2019-01-29T15:27:44.727Z,5.63
2019-01-29T15:30:20.558Z,6.63
2019-01-29T15:33:11.418Z,6.97
2019-01-29T15:35:42.847Z,7.33
2019-01-29T15:38:33.069Z,6.73
2019-01-29T15:41:04.844Z,4.97
2019-01-29T15:43:37.731Z,5.40
2019-01-29T15:46:11.238Z,16.30
2019-01-29T15:48:44.075Z,14.60
2019-01-29T15:51:15.655Z,13.13
2019-01-29T15:54:07.152Z,10.57
2019-01-29T15:56:40.109Z,7.70
2019-01-29T15:59:12.198Z,6.83
2019-01-29T16:01:44.854Z,7.13
2019-01-29T16:04:19.196Z,7.07
2019-01-29T16:06:51.402Z,7.80
2019-01-29T16:09:26.603Z,8.67
2019-01-29T16:11:59.372Z,10.40
2019-01-29T16:14:31.030Z,12.20
2019-01-29T16:17:03.832Z,11.83
2019-01-29T16:19:54.394Z,9.80
2019-01-29T16:22:26.375Z,10.17
2019-01-29T16:24:59.059Z,7.83
2019-01-29T16:27:31.955Z,7.97
2019-01-29T16:30:05.290Z,9.40
2019-01-29T16:32:37.016Z,10.80
2019-01-29T16:35:29.186Z,13.00
2019-01-29T16:38:01.399Z,8.10
2019-01-29T16:40:34.221Z,15.53
2019-01-29T16:43:25.775Z,20.73
2019-01-29T16:45:58.004Z,21.53
2019-01-29T16:48:31.405Z,15.37
2019-01-29T16:51:02.947Z,14.73
2019-01-29T16:53:36.295Z,16.27
2019-01-29T16:56:08.471Z,12.77
2019-01-29T16:59:01.402Z,12.90
2019-01-29T17:01:39.639Z,9.47
2019-01-29T17:04:11.889Z,12.47
2019-01-29T17:06:48.052Z,8.50
2019-01-29T17:09:39.812Z,7.13
2019-01-29T17:12:28.926Z,6.17
2019-01-29T17:15:09.806Z,8.83
2019-01-29T17:18:03.894Z,7.97
2019-01-29T17:26:21.864Z,6.43
2019-01-29T17:28:54.612Z,11.03
2019-01-29T17:32:30.029Z,12.37
2019-01-29T17:34:53.289Z,13.10
2019-01-29T17:37:31.679Z,17.43
2019-01-29T17:40:32.256Z,19.13
2019-01-29T17:43:19.628Z,14.60
2019-01-29T17:46:34.910Z,18.27
2019-01-29T17:49:07.689Z,26.43
2019-01-29T17:52:00.354Z,26.03
2019-01-29T17:54:46.262Z,40.93
2019-01-29T18:00:33.008Z,23.43
2019-01-29T18:06:18.723Z,22.30
2019-01-29T18:11:59.696Z,23.90
2019-01-29T18:14:55.582Z,16.40
2019-01-29T18:17:43.737Z,20.97
2019-01-29T18:20:35.056Z,19.37
2019-01-29T18:23:06.718Z,15.57
2019-01-29T18:25:58.400Z,19.20
2019-01-29T18:28:49.535Z,19.85
2019-01-29T18:31:23.250Z,18.03
2019-01-29T18:33:56.464Z,19.23
2019-01-29T18:36:47.058Z,20.27
2019-01-29T18:39:20.446Z,21.73
2019-01-29T18:41:55.903Z,17.40
2019-01-29T18:44:51.012Z,14.03
2019-01-29T18:47:45.175Z,15.43
2019-01-29T18:50:19.127Z,18.73
2019-01-29T18:53:11.576Z,18.60
2019-01-29T18:58:38.659Z,11.00
2019-01-29T19:04:52.237Z,8.97
2019-01-29T19:10:21.041Z,8.97
2019-01-29T19:13:17.043Z,8.43
2019-01-29T19:15:59.896Z,7.83
2019-01-29T19:21:42.602Z,8.43
2019-01-29T19:24:35.173Z,5.30
2019-01-29T19:27:16.132Z,6.67
2019-01-29T19:29:49.957Z,6.67
2019-01-29T19:32:24.587Z,7.40
2019-01-29T19:35:17.582Z,10.67
2019-01-29T19:38:00.157Z,10.90
2019-01-29T19:40:44.092Z,9.43
2019-01-29T19:43:18.427Z,8.57
2019-01-29T19:46:08.325Z,11.50
2019-01-29T19:48:42.582Z,11.83
2019-01-29T19:54:13.360Z,8.90
2019-01-29T19:59:42.569Z,13.83
2019-01-29T20:02:29.577Z,17.40
2019-01-29T20:05:11.794Z,19.97
2019-01-29T20:07:56.997Z,21.90
2019-01-29T20:10:42.361Z,19.00
2019-01-29T20:13:17.252Z,18.80
2019-01-29T20:15:50.128Z,18.13
2019-01-29T20:21:45.913Z,5.90
2019-01-29T20:24:19.404Z,5.80
2019-01-29T20:30:12.762Z,9.23
2019-01-29T20:33:11.209Z,5.33
2019-01-29T20:35:44.304Z,10.03
2019-01-29T20:38:38.506Z,7.70
2019-01-29T20:41:21.048Z,9.50
2019-01-29T20:46:48.658Z,29.13
2019-01-29T20:49:33.093Z,27.90
2019-01-29T20:52:18.527Z,23.57
2019-01-29T20:55:03.748Z,23.27
2019-01-29T20:57:46.827Z,18.00
2019-01-29T21:00:31.039Z,17.30
2019-01-29T21:03:14.294Z,11.13
2019-01-29T21:06:00.136Z,12.07
2019-01-29T21:08:43.629Z,11.33
2019-01-29T21:11:30.213Z,9.63
2019-01-29T21:14:15.428Z,11.10
2019-01-29T21:17:01.788Z,13.97
2019-01-29T21:19:50.116Z,10.03
2019-01-29T21:22:25.017Z,10.60
2019-01-29T21:28:31.626Z,11.47
2019-01-29T21:31:14.791Z,11.73
2019-01-29T21:34:04.310Z,10.47
2019-01-29T21:39:33.877Z,10.10
2019-01-29T21:42:18.543Z,11.03
2019-01-29T21:48:00.810Z,12.83
2019-01-29T21:50:47.747Z,14.50
2019-01-29T21:53:31.752Z,10.77
2019-01-29T21:56:16.188Z,13.13
2019-01-29T21:58:59.470Z,12.90
2019-01-29T22:01:44.638Z,13.00
2019-01-29T22:04:27.879Z,14.50
2019-01-29T22:07:12.642Z,12.87
2019-01-29T22:09:55.781Z,14.67
2019-01-29T22:12:41.589Z,17.93
2019-01-29T22:15:28.559Z,15.90
2019-01-29T22:21:08.801Z,22.87
2019-01-29T22:23:53.000Z,14.50
2019-01-29T22:26:37.015Z,12.57
2019-01-29T22:29:23.351Z,12.63
2019-01-29T22:32:11.516Z,15.30
2019-01-29T22:34:58.630Z,14.70
2019-01-29T22:37:42.493Z,11.83
2019-01-29T22:40:28.410Z,8.30
2019-01-29T22:46:06.703Z,10.97
2019-01-29T22:48:52.150Z,13.27
2019-01-29T22:51:36.981Z,12.93
2019-01-29T22:54:23.454Z,8.47
2019-01-29T22:57:09.132Z,9.30
2019-01-29T23:02:48.555Z,13.07
2019-01-29T23:05:32.814Z,16.00
2019-01-29T23:08:19.964Z,12.80
2019-01-29T23:10:51.874Z,13.50
2019-01-29T23:13:44.348Z,11.60
2019-01-29T23:22:07.564Z,10.23
2019-01-29T23:27:55.835Z,9.10
2019-01-29T23:30:47.543Z,8.57
2019-01-29T23:33:29.609Z,9.80
2019-01-29T23:36:18.526Z,12.13
2019-01-29T23:39:00.750Z,9.90
2019-01-29T23:41:46.534Z,9.17
2019-01-29T23:44:29.321Z,8.30
2019-01-29T23:47:18.300Z,8.07
2019-01-29T23:50:03.048Z,7.37
2019-01-29T23:52:47.863Z,7.43
2019-01-29T23:55:36.134Z,6.43
2019-01-29T23:58:22.701Z,7.10
